Time;durP1;ratioP1;P1;durP2;ratioP2;P2;SDS_P1;SDS_P2;PMS_P1;PMS_P2;Temp;Humidity;BMP_temperature;BMP_pressure;BME280_temperature;BME280_humidity;BME280_pressure;Samples;Min_cycle;Max_cycle;Signal;HPM_P1;HPM_P2
2023/09/27 00:00:16;;;;;;;5.23;4.73;;;21.90;58.90;;;;;;5096550;28;20637;-67
2023/09/27 00:02:44;;;;;;;6.73;4.67;;;21.90;58.90;;;;;;5096309;28;20259;-67
2023/09/27 00:05:11;;;;;;;5.33;4.80;;;21.90;58.90;;;;;;5096838;28;20169;-67
2023/09/27 00:07:38;;;;;;;5.07;4.47;;;21.90;58.90;;;;;;5096529;28;20433;-67
2023/09/27 00:10:06;;;;;;;5.07;4.67;;;21.90;58.90;;;;;;5096322;28;20423;-67
2023/09/27 00:12:33;;;;;;;5.03;4.40;;;21.90;58.90;;;;;;5098071;28;20419;-67
2023/09/27 00:15:01;;;;;;;4.53;4.10;;;21.90;58.90;;;;;;5099650;28;20582;-68
2023/09/27 00:17:30;;;;;;;4.83;4.43;;;21.90;58.90;;;;;;5100485;28;20443;-67
2023/09/27 00:19:56;;;;;;;4.50;4.10;;;21.90;58.90;;;;;;5100275;28;20448;-68
2023/09/27 00:22:22;;;;;;;5.37;4.50;;;21.90;58.90;;;;;;5100164;28;20474;-68
2023/09/27 00:24:48;;;;;;;5.20;4.70;;;21.90;58.90;;;;;;5100055;28;20170;-68
2023/09/27 00:27:15;;;;;;;5.23;4.77;;;21.90;58.90;;;;;;5099537;28;20781;-67
2023/09/27 00:29:41;;;;;;;4.30;3.90;;;21.90;58.90;;;;;;5100041;28;20181;-68
2023/09/27 00:32:07;;;;;;;3.97;3.67;;;21.90;58.80;;;;;;5098485;28;20939;-67
2023/09/27 00:34:32;;;;;;;5.13;4.50;;;21.90;58.90;;;;;;5100488;28;20188;-68
2023/09/27 00:36:58;;;;;;;4.40;4.00;;;21.90;58.90;;;;;;5099539;28;20696;-68
2023/09/27 00:39:24;;;;;;;4.57;4.13;;;21.90;58.80;;;;;;5098468;28;20695;-67
2023/09/27 00:41:49;;;;;;;5.27;4.33;;;21.90;58.90;;;;;;5100152;28;20235;-67
2023/09/27 00:44:15;;;;;;;4.90;4.40;;;21.80;58.80;;;;;;5099235;28;20411;-68
2023/09/27 00:46:41;;;;;;;5.00;4.60;;;21.90;58.80;;;;;;5099620;28;20220;-67
2023/09/27 00:49:08;;;;;;;5.47;4.80;;;21.80;58.80;;;;;;5099574;28;20173;-67
2023/09/27 00:51:35;;;;;;;4.53;3.63;;;21.80;58.80;;;;;;5099753;28;20503;-68
2023/09/27 00:54:01;;;;;;;4.53;4.20;;;21.80;58.80;;;;;;5099592;28;20427;-67
2023/09/27 00:56:28;;;;;;;4.40;4.00;;;21.80;58.80;;;;;;5097930;28;20412;-68
2023/09/27 00:58:55;;;;;;;6.13;4.90;;;21.80;58.80;;;;;;5099415;28;20411;-68
2023/09/27 01:01:22;;;;;;;4.77;4.03;;;21.80;58.80;;;;;;5099592;28;20408;-68
2023/09/27 01:03:49;;;;;;;5.47;4.87;;;21.90;58.80;;;;;;5099248;28;20462;-68
2023/09/27 01:06:16;;;;;;;4.57;3.50;;;21.80;58.70;;;;;;5099018;28;20484;-68
2023/09/27 01:08:41;;;;;;;4.00;3.60;;;21.80;58.80;;;;;;5099513;28;20412;-67
2023/09/27 01:11:07;;;;;;;4.07;3.70;;;21.80;58.70;;;;;;5099066;28;20419;-67
2023/09/27 01:13:33;;;;;;;4.23;3.83;;;21.80;58.70;;;;;;5099357;28;20208;-68
2023/09/27 01:15:59;;;;;;;4.77;3.97;;;21.90;58.80;;;;;;5099436;28;20184;-67
2023/09/27 01:18:27;;;;;;;4.60;4.20;;;21.80;58.80;;;;;;5098795;28;20517;-68
2023/09/27 01:20:53;;;;;;;4.10;3.70;;;21.90;58.80;;;;;;5099367;28;20193;-68
2023/09/27 01:23:19;;;;;;;5.27;4.20;;;21.80;58.70;;;;;;5097060;28;20428;-68
2023/09/27 01:25:45;;;;;;;4.67;3.83;;;21.90;58.80;;;;;;5098706;28;20205;-66
2023/09/27 01:28:11;;;;;;;4.97;4.47;;;21.80;58.70;;;;;;5099611;28;20318;-68
2023/09/27 01:30:38;;;;;;;4.83;4.40;;;21.90;58.80;;;;;;5098744;28;20449;-68
2023/09/27 01:33:10;;;;;;;4.07;3.67;;;21.90;58.80;;;;;;5098571;28;20967;-67
2023/09/27 01:35:41;;;;;;;4.30;4.00;;;21.80;58.70;;;;;;5098305;28;20396;-68
2023/09/27 01:38:08;;;;;;;3.83;3.53;;;21.80;58.70;;;;;;5098501;28;20455;-68
2023/09/27 01:40:40;;;;;;;5.53;4.43;;;21.80;58.70;;;;;;5098173;28;20406;-68
2023/09/27 01:43:07;;;;;;;5.90;4.00;;;21.80;58.70;;;;;;5097653;28;20814;-68
2023/09/27 01:45:33;;;;;;;5.30;4.57;;;21.80;58.80;;;;;;5098400;28;20764;-67
2023/09/27 01:48:00;;;;;;;4.50;4.07;;;21.80;58.70;;;;;;5098232;28;20439;-67
2023/09/27 01:50:27;;;;;;;3.80;3.50;;;21.80;58.70;;;;;;5098069;28;20415;-67
2023/09/27 01:52:56;;;;;;;4.50;3.97;;;21.90;58.80;;;;;;5097727;28;20424;-68
2023/09/27 01:55:23;;;;;;;5.03;4.13;;;21.80;58.70;;;;;;5098519;28;20404;-67
2023/09/27 01:57:49;;;;;;;4.50;4.10;;;21.80;58.70;;;;;;5098662;28;20490;-68
2023/09/27 02:00:16;;;;;;;4.90;4.30;;;21.80;58.80;;;;;;5098517;28;20404;-68
2023/09/27 02:02:48;;;;;;;5.07;3.90;;;21.90;58.80;;;;;;5097843;28;20259;-68
2023/09/27 02:05:15;;;;;;;5.43;4.27;;;21.80;58.70;;;;;;5096864;28;20396;-67
2023/09/27 02:07:41;;;;;;;4.47;4.07;;;21.80;58.70;;;;;;5097609;28;20855;-67
2023/09/27 02:10:10;;;;;;;4.33;3.70;;;21.80;58.70;;;;;;5096807;28;20412;-66
2023/09/27 02:12:40;;;;;;;4.70;4.13;;;21.80;58.70;;;;;;5097142;28;20435;-67
2023/09/27 02:15:11;;;;;;;4.50;3.67;;;21.80;58.70;;;;;;5097602;28;20411;-66
2023/09/27 02:17:37;;;;;;;4.60;4.20;;;21.80;58.70;;;;;;5097025;28;20818;-66
2023/09/27 02:20:08;;;;;;;3.97;3.63;;;21.80;58.70;;;;;;5097355;28;20481;-67
2023/09/27 02:22:34;;;;;;;4.30;3.90;;;21.80;58.70;;;;;;5097935;28;20451;-67
2023/09/27 02:25:00;;;;;;;4.50;4.10;;;21.80;58.70;;;;;;5089052;28;20428;-67
2023/09/27 02:27:26;;;;;;;4.63;4.10;;;21.80;58.70;;;;;;5096184;28;20418;-67
2023/09/27 02:29:51;;;;;;;4.17;3.60;;;21.80;58.70;;;;;;5095690;28;20198;-67
2023/09/27 02:32:20;;;;;;;4.97;4.30;;;21.80;58.70;;;;;;5096498;28;20200;-66
2023/09/27 02:34:46;;;;;;;4.10;3.70;;;21.80;58.70;;;;;;5096668;28;20170;-68
2023/09/27 02:37:15;;;;;;;5.10;4.63;;;21.80;58.70;;;;;;5096716;28;20546;-68
2023/09/27 02:39:42;;;;;;;5.03;4.00;;;21.80;58.70;;;;;;5096879;28;20411;-66
2023/09/27 02:42:08;;;;;;;3.63;3.33;;;21.80;58.80;;;;;;5097139;28;20407;-67
2023/09/27 02:44:33;;;;;;;4.10;3.70;;;21.80;58.70;;;;;;5096539;28;20967;-66
2023/09/27 02:46:59;;;;;;;4.07;3.67;;;21.80;58.70;;;;;;5096655;28;20411;-67
2023/09/27 02:49:24;;;;;;;4.07;3.63;;;21.80;58.70;;;;;;5096859;28;20181;-67
2023/09/27 02:51:53;;;;;;;4.20;3.80;;;21.80;58.70;;;;;;5096694;28;20231;-67
2023/09/27 02:54:19;;;;;;;4.00;3.70;;;21.80;58.70;;;;;;5095983;28;20666;-66
2023/09/27 02:56:45;;;;;;;4.30;3.90;;;21.80;58.70;;;;;;5096634;28;20456;-67
2023/09/27 02:59:11;;;;;;;3.63;3.33;;;21.80;58.70;;;;;;5095916;28;20434;-67
2023/09/27 03:01:41;;;;;;;4.13;3.67;;;21.80;58.70;;;;;;5096395;28;20697;-67
2023/09/27 03:04:08;;;;;;;3.50;3.20;;;21.80;58.70;;;;;;5095585;28;20470;-68
2023/09/27 03:06:37;;;;;;;3.87;3.47;;;21.80;58.70;;;;;;5096686;28;20436;-67
2023/09/27 03:09:04;;;;;;;5.60;3.97;;;21.80;58.70;;;;;;5097260;28;20842;-68
2023/09/27 03:11:31;;;;;;;4.40;4.00;;;21.80;58.70;;;;;;5095708;28;20411;-68
2023/09/27 03:13:56;;;;;;;4.17;3.33;;;21.80;58.70;;;;;;5096838;28;20845;-67
2023/09/27 03:16:23;;;;;;;4.73;3.80;;;21.80;58.70;;;;;;5096526;28;20412;-68
2023/09/27 03:18:49;;;;;;;4.97;4.53;;;21.80;58.70;;;;;;5096671;28;20671;-67
2023/09/27 03:21:17;;;;;;;4.80;4.40;;;21.80;58.70;;;;;;5097011;28;20439;-67
2023/09/27 03:23:43;;;;;;;4.63;3.67;;;21.80;58.70;;;;;;5096119;28;20452;-67
2023/09/27 03:26:08;;;;;;;4.30;3.90;;;21.80;58.70;;;;;;5096389;28;20441;-67
2023/09/27 03:28:34;;;;;;;4.77;4.27;;;21.80;58.70;;;;;;5096939;28;20407;-67
2023/09/27 03:31:00;;;;;;;4.47;4.00;;;21.80;58.70;;;;;;5096628;28;20544;-67
2023/09/27 03:33:26;;;;;;;4.97;4.00;;;21.80;58.70;;;;;;5097000;28;20189;-67
2023/09/27 03:35:51;;;;;;;3.67;3.37;;;21.80;58.70;;;;;;5096887;28;20407;-68
2023/09/27 03:38:17;;;;;;;4.30;3.90;;;21.80;58.70;;;;;;5095568;28;20212;-66
2023/09/27 03:40:42;;;;;;;4.07;3.70;;;21.80;58.70;;;;;;5096760;28;20173;-67
2023/09/27 03:43:08;;;;;;;4.33;3.93;;;21.80;58.60;;;;;;5096906;28;20200;-67
2023/09/27 03:45:35;;;;;;;4.03;3.70;;;21.80;58.70;;;;;;5096547;28;20201;-67
2023/09/27 03:48:05;;;;;;;3.80;3.50;;;21.80;58.70;;;;;;5099676;28;20251;-67
2023/09/27 03:50:30;;;;;;;3.70;3.40;;;21.80;58.70;;;;;;5100914;28;20411;-68
2023/09/27 03:52:57;;;;;;;4.10;3.77;;;21.80;58.70;;;;;;5099196;28;20446;-67
2023/09/27 03:55:22;;;;;;;4.33;3.93;;;21.80;58.70;;;;;;5100546;28;20173;-67
2023/09/27 03:57:48;;;;;;;6.93;3.90;;;21.80;58.70;;;;;;5100459;28;21015;-67
2023/09/27 04:00:14;;;;;;;4.60;4.17;;;21.80;58.60;;;;;;5100551;28;20170;-66
2023/09/27 04:02:41;;;;;;;4.20;3.53;;;21.80;58.70;;;;;;5099698;28;20189;-67
2023/09/27 04:05:07;;;;;;;4.70;4.07;;;21.80;58.70;;;;;;5100201;28;20502;-68
2023/09/27 04:07:33;;;;;;;6.33;4.17;;;21.80;58.60;;;;;;5100338;28;20968;-67
2023/09/27 04:10:00;;;;;;;3.90;3.37;;;21.80;58.60;;;;;;5099110;28;20420;-67
2023/09/27 04:12:25;;;;;;;3.97;3.67;;;21.80;58.70;;;;;;5100354;28;20591;-67
2023/09/27 04:14:51;;;;;;;3.63;3.37;;;21.80;58.70;;;;;;5099613;28;20494;-67
2023/09/27 04:17:17;;;;;;;3.77;3.47;;;21.80;58.60;;;;;;5098840;28;20197;-67
2023/09/27 04:19:43;;;;;;;3.83;3.43;;;21.80;58.60;;;;;;5099195;28;20241;-67
2023/09/27 04:22:08;;;;;;;4.03;3.30;;;21.80;58.70;;;;;;5097711;28;20204;-67
2023/09/27 04:24:34;;;;;;;4.20;3.80;;;21.80;58.70;;;;;;5099248;28;20166;-66
2023/09/27 04:26:59;;;;;;;3.63;3.33;;;21.80;58.60;;;;;;5098866;28;20227;-67
2023/09/27 04:29:26;;;;;;;3.70;3.30;;;21.80;58.70;;;;;;5099793;28;20950;-66
2023/09/27 04:31:52;;;;;;;3.57;3.23;;;21.80;58.60;;;;;;5100584;28;20169;-67
2023/09/27 04:34:18;;;;;;;4.13;3.73;;;21.80;58.70;;;;;;5099285;28;20439;-67
2023/09/27 04:36:44;;;;;;;4.60;4.03;;;21.80;58.70;;;;;;5099658;28;21002;-66
2023/09/27 04:39:18;;;;;;;3.80;3.50;;;21.80;58.70;;;;;;5099913;28;20404;-67
2023/09/27 04:41:46;;;;;;;3.50;3.07;;;21.80;58.70;;;;;;5099156;28;20419;-67
2023/09/27 04:44:12;;;;;;;3.47;3.17;;;21.80;58.70;;;;;;5098937;28;20987;-66
2023/09/27 04:46:38;;;;;;;3.80;3.50;;;21.80;58.70;;;;;;5099197;28;21108;-66
2023/09/27 04:49:03;;;;;;;3.90;3.60;;;21.80;58.70;;;;;;5098873;28;20399;-66
2023/09/27 04:51:29;;;;;;;5.53;3.77;;;21.80;58.70;;;;;;5099678;28;20552;-68
2023/09/27 04:54:00;;;;;;;4.03;3.40;;;21.80;58.70;;;;;;5097789;28;20666;-66
2023/09/27 04:56:26;;;;;;;4.40;4.00;;;21.80;58.70;;;;;;5099334;28;20384;-67
2023/09/27 04:58:52;;;;;;;4.90;3.80;;;21.80;59.30;;;;;;5097866;28;20504;-67
2023/09/27 05:01:18;;;;;;;5.47;4.00;;;21.80;58.80;;;;;;5098722;28;20495;-66
2023/09/27 05:03:43;;;;;;;4.40;4.00;;;21.80;58.70;;;;;;5099254;28;20193;-66
2023/09/27 05:06:09;;;;;;;6.20;4.30;;;21.80;58.80;;;;;;5098316;28;20177;-66
2023/09/27 05:08:34;;;;;;;6.33;3.53;;;21.80;58.80;;;;;;5097644;28;20174;-66
2023/09/27 05:11:00;;;;;;;4.10;3.70;;;21.80;58.70;;;;;;5092447;28;20173;-68
2023/09/27 05:13:26;;;;;;;3.97;3.67;;;21.80;58.80;;;;;;5093375;28;20576;-68
2023/09/27 05:15:52;;;;;;;4.00;3.60;;;21.80;58.80;;;;;;5093766;28;20437;-65
2023/09/27 05:18:19;;;;;;;5.43;3.80;;;21.80;58.80;;;;;;5093948;28;20443;-67
2023/09/27 05:20:44;;;;;;;6.03;3.80;;;21.80;58.80;;;;;;5093512;28;20686;-66
2023/09/27 05:23:11;;;;;;;6.00;3.73;;;21.80;58.80;;;;;;5093690;28;20416;-67
2023/09/27 05:25:36;;;;;;;4.30;3.90;;;21.80;58.80;;;;;;5093681;28;20250;-68
2023/09/27 05:28:03;;;;;;;5.10;3.63;;;21.80;58.80;;;;;;5093501;28;20511;-69
2023/09/27 05:30:28;;;;;;;5.37;4.40;;;21.80;58.80;;;;;;5093642;28;20161;-69
2023/09/27 05:32:54;;;;;;;6.60;4.00;;;21.80;58.80;;;;;;5093749;28;20778;-69
2023/09/27 05:35:20;;;;;;;4.60;4.10;;;21.80;58.80;;;;;;5093602;28;20201;-66
2023/09/27 05:37:46;;;;;;;4.23;3.50;;;21.80;58.80;;;;;;5093501;28;20201;-66
2023/09/27 05:40:12;;;;;;;4.70;3.63;;;21.80;58.80;;;;;;5093502;28;20633;-66
2023/09/27 05:42:39;;;;;;;3.93;3.63;;;21.80;58.80;;;;;;5093821;28;20899;-66
2023/09/27 05:45:05;;;;;;;4.80;3.30;;;21.80;58.80;;;;;;5092221;28;20418;-66
2023/09/27 05:47:32;;;;;;;6.43;3.70;;;21.80;58.80;;;;;;5093300;28;20415;-68
2023/09/27 05:49:58;;;;;;;6.43;4.07;;;21.80;58.80;;;;;;5093342;28;20502;-68
2023/09/27 05:52:23;;;;;;;4.60;3.83;;;21.80;58.80;;;;;;5093301;28;20510;-66
2023/09/27 05:54:51;;;;;;;4.70;4.10;;;21.80;58.80;;;;;;5093184;28;20169;-66
2023/09/27 05:57:16;;;;;;;5.00;4.20;;;21.80;58.90;;;;;;5093082;28;20292;-65
2023/09/27 05:59:44;;;;;;;4.90;4.00;;;21.80;58.90;;;;;;5093095;28;20483;-67
2023/09/27 06:02:16;;;;;;;5.80;3.80;;;21.80;58.90;;;;;;5091786;28;20166;-64
2023/09/27 06:04:46;;;;;;;5.30;3.60;;;21.80;58.90;;;;;;5093061;28;20826;-65
2023/09/27 06:07:17;;;;;;;5.40;4.20;;;21.80;58.90;;;;;;5093048;28;20934;-66
2023/09/27 06:09:43;;;;;;;6.80;4.40;;;21.80;58.90;;;;;;5092819;28;20893;-67
2023/09/27 06:12:10;;;;;;;4.33;3.83;;;21.80;58.90;;;;;;5092761;28;20418;-68
2023/09/27 06:14:37;;;;;;;4.30;3.87;;;21.80;58.90;;;;;;5092922;28;20461;-68
2023/09/27 06:17:03;;;;;;;4.10;3.70;;;21.80;58.90;;;;;;5092691;28;20455;-66
2023/09/27 06:19:31;;;;;;;4.20;3.80;;;21.80;58.90;;;;;;5092794;28;20603;-68
2023/09/27 06:21:58;;;;;;;5.33;3.90;;;21.80;58.90;;;;;;5092750;28;20415;-68
2023/09/27 06:24:26;;;;;;;4.53;4.13;;;21.80;58.90;;;;;;5092926;28;20645;-68
2023/09/27 06:26:55;;;;;;;5.60;3.40;;;21.80;58.90;;;;;;5092955;28;20815;-66
2023/09/27 06:29:20;;;;;;;3.90;3.30;;;21.80;58.90;;;;;;5092524;28;20404;-65
2023/09/27 06:31:49;;;;;;;4.57;3.73;;;21.80;58.90;;;;;;5092467;28;20461;-67
2023/09/27 06:34:16;;;;;;;5.10;3.67;;;21.80;59.00;;;;;;5092354;28;20208;-68
2023/09/27 06:36:42;;;;;;;4.57;3.73;;;21.80;58.90;;;;;;5092272;28;20897;-67
2023/09/27 06:39:14;;;;;;;4.10;3.70;;;21.80;59.00;;;;;;5092494;28;20495;-66
2023/09/27 06:41:40;;;;;;;4.40;3.90;;;21.80;59.00;;;;;;5092517;28;20380;-67
2023/09/27 06:44:06;;;;;;;4.40;3.80;;;21.80;59.00;;;;;;5092222;28;20476;-65
2023/09/27 06:46:35;;;;;;;4.63;4.00;;;21.80;59.00;;;;;;5092532;28;20411;-67
2023/09/27 06:49:03;;;;;;;3.87;3.57;;;21.80;59.00;;;;;;5091180;28;20412;-67
2023/09/27 06:51:29;;;;;;;4.07;3.67;;;21.80;59.00;;;;;;5092159;28;20419;-66
2023/09/27 06:53:55;;;;;;;4.10;3.70;;;21.80;59.00;;;;;;5091984;28;20432;-67
2023/09/27 06:56:20;;;;;;;3.63;3.33;;;21.80;59.00;;;;;;5092133;28;20415;-66
2023/09/27 06:58:46;;;;;;;3.70;3.40;;;21.80;59.00;;;;;;5092226;28;20197;-69
2023/09/27 07:01:13;;;;;;;4.03;3.37;;;21.70;58.90;;;;;;5090825;28;20215;-68
2023/09/27 07:03:40;;;;;;;3.80;3.40;;;21.80;59.00;;;;;;5091879;28;20213;-66
2023/09/27 07:06:06;;;;;;;5.37;3.23;;;21.80;59.00;;;;;;5092156;28;20931;-66
2023/09/27 07:08:31;;;;;;;4.27;3.33;;;21.80;59.00;;;;;;5092054;28;20416;-67
2023/09/27 07:11:08;;;;;;;4.23;3.83;;;21.80;59.00;;;;;;5092260;28;20196;-66
2023/09/27 07:13:34;;;;;;;4.60;3.87;;;21.80;59.00;;;;;;5090245;28;20203;-70
2023/09/27 07:16:02;;;;;;;3.97;3.57;;;21.80;59.10;;;;;;5091818;28;20435;-69
2023/09/27 07:18:27;;;;;;;4.20;3.70;;;21.70;59.00;;;;;;5083585;28;20459;-69
2023/09/27 07:20:54;;;;;;;4.07;3.67;;;21.80;59.10;;;;;;5070824;28;20843;-69
2023/09/27 07:23:20;;;;;;;3.20;2.90;;;21.80;59.10;;;;;;5069560;28;20182;-69
2023/09/27 07:25:47;;;;;;;3.97;3.60;;;21.80;59.10;;;;;;5069792;28;20401;-68
2023/09/27 07:28:13;;;;;;;3.83;3.33;;;21.80;59.10;;;;;;5070976;28;20412;-66
2023/09/27 07:30:39;;;;;;;4.13;3.73;;;21.80;59.00;;;;;;5071424;28;20491;-66
2023/09/27 07:33:11;;;;;;;6.23;3.90;;;21.80;59.00;;;;;;5071440;28;20532;-67
2023/09/27 07:35:42;;;;;;;4.47;3.57;;;21.80;59.00;;;;;;5071382;28;20155;-67
2023/09/27 07:38:10;;;;;;;4.03;3.23;;;21.80;59.00;;;;;;5071327;28;20468;-66
2023/09/27 07:40:36;;;;;;;3.93;3.53;;;21.80;59.00;;;;;;5070115;28;20440;-67
2023/09/27 07:43:01;;;;;;;3.80;3.23;;;21.80;59.10;;;;;;5071305;28;20483;-66
2023/09/27 07:45:31;;;;;;;4.40;4.00;;;21.80;59.00;;;;;;5071625;28;20166;-66
2023/09/27 07:47:57;;;;;;;3.23;2.93;;;21.80;59.00;;;;;;5071308;28;20167;-66
2023/09/27 07:50:27;;;;;;;3.90;3.50;;;21.80;59.10;;;;;;5071378;28;20826;-66
2023/09/27 07:52:58;;;;;;;3.50;3.20;;;21.80;59.10;;;;;;5071564;28;20424;-68
2023/09/27 07:55:25;;;;;;;5.33;3.60;;;21.80;59.00;;;;;;5071233;28;20450;-66
2023/09/27 07:57:52;;;;;;;3.60;3.30;;;21.80;59.00;;;;;;5071147;28;20497;-67
2023/09/27 08:00:19;;;;;;;3.70;3.40;;;21.80;59.00;;;;;;5071206;28;20416;-67
2023/09/27 08:02:46;;;;;;;3.87;3.50;;;21.80;59.00;;;;;;5071201;28;20420;-67
2023/09/27 08:05:14;;;;;;;3.23;2.93;;;21.80;59.00;;;;;;5071546;28;20408;-66
2023/09/27 08:07:40;;;;;;;2.97;2.77;;;21.80;59.00;;;;;;5071205;28;20404;-67
2023/09/27 08:10:07;;;;;;;3.90;3.27;;;21.80;59.00;;;;;;5071308;28;20412;-65
2023/09/27 08:12:34;;;;;;;4.17;3.77;;;21.80;59.00;;;;;;5071084;28;20428;-64
2023/09/27 08:15:03;;;;;;;4.60;3.90;;;21.80;59.00;;;;;;5071160;28;20982;-66
2023/09/27 08:17:30;;;;;;;4.13;3.13;;;21.80;59.00;;;;;;5071200;28;20452;-66
2023/09/27 08:19:56;;;;;;;3.47;3.17;;;21.80;59.00;;;;;;5071015;28;20478;-66
2023/09/27 08:22:21;;;;;;;3.83;3.43;;;21.80;59.00;;;;;;5071042;28;20421;-68
2023/09/27 08:24:47;;;;;;;5.20;3.53;;;21.80;59.00;;;;;;5070897;28;20179;-67
2023/09/27 08:27:12;;;;;;;4.50;3.93;;;21.80;59.00;;;;;;5070945;28;20668;-67
2023/09/27 08:29:38;;;;;;;3.47;3.17;;;21.80;59.00;;;;;;5071114;28;20662;-67
2023/09/27 08:32:08;;;;;;;4.77;3.37;;;21.80;59.00;;;;;;5070651;28;20176;-67
2023/09/27 08:34:34;;;;;;;4.70;2.87;;;21.80;59.00;;;;;;5074455;28;20675;-67
2023/09/27 08:37:00;;;;;;;4.20;3.40;;;21.80;59.00;;;;;;5074427;28;20566;-66
2023/09/27 08:39:30;;;;;;;3.63;3.13;;;21.80;59.00;;;;;;5074450;28;20479;-67
2023/09/27 08:41:58;;;;;;;5.20;3.60;;;21.80;59.00;;;;;;5074498;28;20404;-66
2023/09/27 08:44:24;;;;;;;3.53;3.23;;;21.80;59.00;;;;;;5073066;28;20501;-65
2023/09/27 08:46:54;;;;;;;4.70;4.20;;;21.80;59.60;;;;;;5073927;28;20404;-67
2023/09/27 08:49:20;;;;;;;3.70;2.77;;;21.80;58.90;;;;;;5073847;28;20403;-67
2023/09/27 08:51:48;;;;;;;5.03;3.77;;;21.80;58.90;;;;;;5074326;28;20397;-67
2023/09/27 08:54:19;;;;;;;3.60;3.30;;;21.80;59.00;;;;;;5074128;28;20470;-67
2023/09/27 08:56:48;;;;;;;3.47;3.17;;;21.80;59.50;;;;;;5074076;28;21075;-66
2023/09/27 08:59:13;;;;;;;3.90;3.43;;;21.80;58.90;;;;;;5074220;28;20427;-66
2023/09/27 09:01:42;;;;;;;3.50;3.20;;;21.80;59.00;;;;;;5074001;28;20404;-66
2023/09/27 09:04:08;;;;;;;4.77;3.77;;;21.80;59.00;;;;;;5073973;28;20846;-66
2023/09/27 09:06:35;;;;;;;3.57;3.13;;;21.80;59.00;;;;;;5074023;28;20531;-67
2023/09/27 09:09:10;;;;;;;6.20;3.67;;;21.80;59.00;;;;;;5072675;28;20178;-69
2023/09/27 09:11:38;;;;;;;4.20;3.20;;;21.80;58.90;;;;;;5073988;28;20411;-66
2023/09/27 09:14:04;;;;;;;3.33;3.03;;;21.80;58.90;;;;;;5073659;28;20443;-69
2023/09/27 09:16:44;;;;;;;3.60;3.20;;;21.80;58.90;;;;;;5079349;28;20416;-67
2023/09/27 09:19:24;;;;;;;4.10;3.50;;;21.80;58.90;;;;;;5084330;28;20443;-67
2023/09/27 09:22:03;;;;;;;3.67;3.00;;;21.80;58.90;;;;;;5090067;28;20435;-64
2023/09/27 09:24:29;;;;;;;4.10;3.13;;;21.80;59.00;;;;;;5094106;28;20379;-67
2023/09/27 09:27:12;;;;;;;3.80;3.03;;;21.80;59.00;;;;;;5093951;28;20407;-66
2023/09/27 09:29:45;;;;;;;3.13;2.83;;;21.80;58.90;;;;;;5093941;28;20177;-67
2023/09/27 09:32:13;;;;;;;4.97;3.40;;;21.80;58.90;;;;;;5093730;28;20396;-67
2023/09/27 09:34:48;;;;;;;3.33;3.00;;;21.80;59.00;;;;;;5093915;28;20408;-67
2023/09/27 09:37:28;;;;;;;3.50;3.20;;;21.80;58.90;;;;;;5093673;28;20439;-65
2023/09/27 09:40:15;;;;;;;3.40;3.10;;;21.80;59.50;;;;;;5093842;28;20838;-67
2023/09/27 09:42:42;;;;;;;3.43;3.13;;;21.80;58.90;;;;;;5094065;28;20472;-66
2023/09/27 09:45:12;;;;;;;3.80;3.27;;;21.80;59.00;;;;;;5092827;28;20431;-67
2023/09/27 09:47:43;;;;;;;4.33;3.47;;;21.80;59.00;;;;;;5093501;28;20411;-66
2023/09/27 09:50:16;;;;;;;3.60;3.30;;;21.80;59.00;;;;;;5093521;28;20392;-66
2023/09/27 09:52:59;;;;;;;3.90;3.30;;;21.80;59.00;;;;;;5093837;28;20447;-66
2023/09/27 09:55:29;;;;;;;3.47;3.17;;;21.80;58.90;;;;;;5093508;28;20407;-67
2023/09/27 09:58:17;;;;;;;3.80;3.40;;;21.80;58.90;;;;;;5078461;28;20460;-66
2023/09/27 10:00:49;;;;;;;3.43;3.13;;;21.80;58.90;;;;;;5066952;28;20948;-68
2023/09/27 10:03:20;;;;;;;3.23;2.93;;;21.80;59.00;;;;;;5071153;28;20530;-67
2023/09/27 10:05:49;;;;;;;3.17;2.80;;;21.80;58.90;;;;;;5073392;28;20397;-67
2023/09/27 10:08:17;;;;;;;5.70;3.10;;;21.80;58.90;;;;;;5072944;28;20424;-65
2023/09/27 10:10:43;;;;;;;3.73;3.10;;;21.80;59.00;;;;;;5071885;28;20546;-67
2023/09/27 10:13:09;;;;;;;4.30;2.90;;;21.80;59.60;;;;;;5072451;28;20903;-65
2023/09/27 10:15:36;;;;;;;4.23;3.17;;;21.80;58.90;;;;;;5072649;28;20225;-66
2023/09/27 10:18:23;;;;;;;3.40;3.10;;;21.80;58.90;;;;;;5072804;28;20448;-65
2023/09/27 10:21:02;;;;;;;4.03;2.83;;;21.90;59.00;;;;;;5072488;28;20440;-67
2023/09/27 10:23:45;;;;;;;3.83;3.43;;;21.90;59.00;;;;;;5072550;28;20925;-69
2023/09/27 10:26:35;;;;;;;3.43;3.13;;;21.80;58.90;;;;;;5072624;28;20389;-68
2023/09/27 10:29:03;;;;;;;3.63;3.07;;;21.90;59.00;;;;;;5072480;28;20417;-69
2023/09/27 10:31:37;;;;;;;3.93;3.03;;;21.80;59.00;;;;;;5072572;28;20404;-69
2023/09/27 10:34:22;;;;;;;3.47;3.00;;;21.80;59.00;;;;;;5072464;28;20777;-67
2023/09/27 10:36:48;;;;;;;3.33;3.03;;;21.80;59.00;;;;;;5089695;28;20425;-65
2023/09/27 10:39:13;;;;;;;3.60;3.30;;;21.80;59.00;;;;;;5092627;28;20399;-68
2023/09/27 10:41:43;;;;;;;3.20;2.90;;;21.80;59.00;;;;;;5092536;28;20204;-66
2023/09/27 10:44:09;;;;;;;5.33;2.70;;;21.80;59.00;;;;;;5092095;28;20201;-66
2023/09/27 10:46:45;;;;;;;3.87;2.67;;;21.90;59.10;;;;;;5092406;28;20396;-67
2023/09/27 10:49:11;;;;;;;2.70;2.50;;;21.80;59.50;;;;;;5092512;28;20162;-66
2023/09/27 10:51:37;;;;;;;4.00;3.60;;;21.80;59.60;;;;;;5092479;28;20404;-68
2023/09/27 10:54:09;;;;;;;5.03;3.00;;;21.90;59.10;;;;;;5092457;28;20435;-68
2023/09/27 10:56:35;;;;;;;3.93;3.10;;;21.90;59.00;;;;;;5092322;28;20408;-66
2023/09/27 10:59:02;;;;;;;6.53;5.10;;;21.80;59.00;;;;;;5092078;28;20451;-66
2023/09/27 11:01:28;;;;;;;11.43;6.37;;;21.80;59.00;;;;;;5092278;28;20404;-66
2023/09/27 11:04:00;;;;;;;22.00;10.80;;;21.90;59.10;;;;;;5090632;28;21079;-66
2023/09/27 11:06:27;;;;;;;26.73;13.77;;;21.90;59.00;;;;;;5091731;28;20785;-67
2023/09/27 11:09:07;;;;;;;59.37;23.03;;;21.90;59.00;;;;;;5091800;28;20423;-66
2023/09/27 11:11:36;;;;;;;59.53;21.77;;;21.90;59.00;;;;;;5092002;28;20407;-65
2023/09/27 11:14:01;;;;;;;76.13;30.30;;;21.90;59.10;;;;;;5091670;28;20802;-66
2023/09/27 11:16:27;;;;;;;81.80;31.37;;;21.90;59.10;;;;;;5090355;28;20411;-66
2023/09/27 11:18:56;;;;;;;73.10;30.33;;;21.90;59.10;;;;;;5091370;28;20204;-68
2023/09/27 11:21:28;;;;;;;93.77;28.23;;;21.90;59.20;;;;;;5091723;28;20645;-64
2023/09/27 11:23:58;;;;;;;83.27;30.27;;;21.90;59.20;;;;;;5091765;28;20792;-67
2023/09/27 11:26:28;;;;;;;97.13;29.20;;;21.90;59.30;;;;;;5091290;28;20392;-67
2023/09/27 11:29:07;;;;;;;72.87;27.73;;;21.90;59.40;;;;;;5091514;28;20380;-67
2023/09/27 11:31:34;;;;;;;77.67;26.63;;;21.90;59.40;;;;;;5091543;28;20773;-66
2023/09/27 11:34:17;;;;;;;83.07;30.17;;;21.90;59.40;;;;;;5089258;28;20959;-67
2023/09/27 11:36:46;;;;;;;68.57;26.60;;;21.90;59.40;;;;;;5101134;28;20403;-65
2023/09/27 11:39:13;;;;;;;76.57;27.23;;;21.90;59.40;;;;;;5111806;28;20779;-65
2023/09/27 11:41:39;;;;;;;82.47;26.90;;;21.90;59.50;;;;;;5111649;28;20466;-66
2023/09/27 11:44:25;;;;;;;65.27;26.10;;;21.90;59.40;;;;;;5111877;28;20475;-68
2023/09/27 11:47:12;;;;;;;69.10;24.97;;;21.90;59.50;;;;;;5111521;28;20169;-66
2023/09/27 11:49:37;;;;;;;51.43;23.17;;;21.90;59.50;;;;;;5108892;28;20410;-68
2023/09/27 11:52:10;;;;;;;72.57;25.97;;;21.90;59.50;;;;;;5087389;28;20466;-67
2023/09/27 11:54:41;;;;;;;79.07;24.97;;;22.00;59.60;;;;;;5071184;28;20149;-66
2023/09/27 11:57:08;;;;;;;70.00;25.10;;;21.90;59.50;;;;;;5078051;28;20541;-68
2023/09/27 11:59:33;;;;;;;55.33;22.97;;;21.90;59.60;;;;;;5085763;28;20412;-67
2023/09/27 12:02:02;;;;;;;70.63;24.67;;;22.00;59.70;;;;;;5071133;28;20454;-65
2023/09/27 12:04:28;;;;;;;49.60;23.83;;;21.90;59.60;;;;;;5071228;28;20553;-68
2023/09/27 12:06:54;;;;;;;60.27;25.17;;;21.90;59.60;;;;;;5070955;28;20405;-68
2023/09/27 12:09:19;;;;;;;59.60;24.37;;;22.00;59.70;;;;;;5073889;28;20170;-70
2023/09/27 12:11:45;;;;;;;51.07;23.17;;;22.00;59.90;;;;;;5074897;28;20553;-65
2023/09/27 12:14:11;;;;;;;53.40;24.10;;;22.00;59.80;;;;;;5074465;28;20582;-68
2023/09/27 12:16:36;;;;;;;70.17;27.90;;;22.00;59.80;;;;;;5074581;28;20174;-67
2023/09/27 12:19:02;;;;;;;56.03;25.20;;;22.00;59.80;;;;;;5074023;28;20691;-67
2023/09/27 12:21:34;;;;;;;53.80;25.37;;;22.00;59.70;;;;;;5073482;28;20203;-68
2023/09/27 12:24:00;;;;;;;56.33;24.37;;;22.00;59.70;;;;;;5074082;28;20423;-67
2023/09/27 12:26:25;;;;;;;57.17;24.03;;;22.00;59.70;;;;;;5074060;28;20401;-67
2023/09/27 12:28:51;;;;;;;57.67;24.57;;;22.00;59.70;;;;;;5073423;28;20424;-66
2023/09/27 12:31:16;;;;;;;60.93;23.17;;;22.00;59.70;;;;;;5074732;28;20166;-68
2023/09/27 12:33:42;;;;;;;54.20;22.70;;;22.00;59.70;;;;;;5074367;28;20551;-67
2023/09/27 12:36:08;;;;;;;55.47;23.43;;;22.00;59.70;;;;;;5074237;28;20166;-67
2023/09/27 12:38:33;;;;;;;47.03;21.97;;;22.00;59.60;;;;;;5074327;28;20202;-67
2023/09/27 12:41:01;;;;;;;53.20;23.13;;;22.00;59.70;;;;;;5074386;28;20162;-68
2023/09/27 12:43:27;;;;;;;58.53;25.40;;;22.00;59.70;;;;;;5074308;28;20584;-67
2023/09/27 12:45:52;;;;;;;54.30;22.57;;;22.00;60.40;;;;;;5074190;28;20415;-67